Jur'Evec, Russia
Current Conditions -  °F | °C
As of 6:30 AM on Friday 28 Nov 2014 (Local Time) from UWGG Reporting Station
Overcast Overcast  
Wind Chill: 19°   Ceiling: 700
Heat Index: 19°   Visibility: 6mi
Dew Point: 18°   Wind: 0mph
Humidity: 93%   Direction: NA
Pressure: 30.62"   Gusts: NA
Location:  57.33°N, 43.12°E
Report Text: UWGG 280330Z 00000MPS 9999 OVC007 M07/M08 Q1037 NOSIG 36190042RMK QFE770
Loading
Personal Weather Stations






























Interactive Weather Map New forecast layout! Learn more

10-Day Weather Forecast

Advertisements
Track Severe Weather on mobile